createdAt,value
2019-05-19T00:00:56.587Z,23.90
2019-05-19T00:03:23.527Z,23.17
2019-05-19T00:05:50.853Z,22.37
2019-05-19T00:08:17.576Z,24.07
2019-05-19T00:10:44.208Z,23.10
2019-05-19T00:13:10.873Z,22.57
2019-05-19T00:15:38.223Z,21.25
2019-05-19T00:18:04.956Z,20.47
2019-05-19T00:20:31.666Z,20.60
2019-05-19T00:22:58.329Z,21.55
2019-05-19T00:25:25.034Z,19.30
2019-05-19T00:27:51.769Z,20.03
2019-05-19T00:30:18.522Z,21.77
2019-05-19T00:32:45.503Z,19.82
2019-05-19T00:35:12.309Z,19.00
2019-05-19T00:37:39.278Z,20.07
2019-05-19T00:40:05.963Z,18.63
2019-05-19T00:42:35.610Z,18.70
2019-05-19T00:45:03.561Z,19.02
2019-05-19T00:47:30.432Z,18.00
2019-05-19T00:49:57.515Z,17.70
2019-05-19T00:52:24.198Z,19.13
2019-05-19T00:54:51.057Z,19.73
2019-05-19T00:57:18.113Z,17.70
2019-05-19T00:59:45.122Z,19.23
2019-05-19T01:02:11.774Z,18.10
2019-05-19T01:04:38.438Z,17.67
2019-05-19T01:07:05.198Z,17.63
2019-05-19T01:09:32.217Z,19.13
2019-05-19T01:11:58.821Z,20.92
2019-05-19T01:14:25.589Z,19.75
2019-05-19T01:16:52.207Z,18.77
2019-05-19T01:19:18.878Z,18.70
2019-05-19T01:21:45.790Z,18.10
2019-05-19T01:24:12.436Z,18.00
2019-05-19T01:26:39.417Z,17.00
2019-05-19T01:29:06.180Z,17.80
2019-05-19T01:31:33.105Z,16.90
2019-05-19T01:33:59.809Z,16.30
2019-05-19T01:36:26.688Z,16.80
2019-05-19T01:38:53.455Z,15.18
2019-05-19T01:41:20.141Z,15.17
2019-05-19T01:43:46.850Z,15.23
2019-05-19T01:46:13.495Z,14.83
2019-05-19T01:48:41.158Z,15.67
2019-05-19T01:51:07.908Z,15.23
2019-05-19T01:53:34.521Z,14.23
2019-05-19T01:56:01.226Z,14.70
2019-05-19T01:58:27.863Z,13.73
2019-05-19T02:00:54.687Z,15.43
2019-05-19T02:03:21.279Z,13.13
2019-05-19T02:05:47.911Z,13.90
2019-05-19T02:08:14.563Z,15.23
2019-05-19T02:10:41.317Z,13.23
2019-05-19T02:13:08.138Z,13.80
2019-05-19T02:15:34.760Z,14.20
2019-05-19T02:18:01.665Z,13.13
2019-05-19T02:20:33.181Z,14.57
2019-05-19T02:22:57.144Z,14.30
2019-05-19T02:25:23.875Z,12.83
2019-05-19T02:27:50.611Z,14.03
2019-05-19T02:30:18.107Z,13.03
2019-05-19T02:32:44.811Z,12.27
2019-05-19T02:35:11.577Z,13.03
2019-05-19T02:37:38.305Z,12.03
2019-05-19T02:40:05.887Z,13.20
2019-05-19T02:42:34.492Z,12.83
2019-05-19T02:45:01.786Z,13.53
2019-05-19T02:47:29.357Z,12.73
2019-05-19T02:49:56.233Z,13.77
2019-05-19T02:52:23.529Z,13.93
2019-05-19T02:54:50.267Z,12.50
2019-05-19T02:57:17.867Z,12.70
2019-05-19T02:59:44.648Z,13.37
2019-05-19T03:02:12.620Z,12.83
2019-05-19T03:04:40.057Z,13.70
2019-05-19T03:07:06.841Z,14.37
2019-05-19T03:09:33.492Z,12.33
2019-05-19T03:12:00.412Z,13.23
2019-05-19T03:14:26.970Z,12.80
2019-05-19T03:16:53.549Z,12.60
2019-05-19T03:19:20.218Z,12.80
2019-05-19T03:21:47.265Z,12.83
2019-05-19T03:24:13.833Z,12.67
2019-05-19T03:26:40.419Z,12.73
2019-05-19T03:29:08.396Z,11.47
2019-05-19T03:31:50.695Z,11.87
2019-05-19T03:34:17.459Z,11.30
2019-05-19T03:36:44.069Z,11.57
2019-05-19T03:39:11.068Z,11.37
2019-05-19T03:41:37.876Z,11.43
2019-05-19T03:44:04.769Z,12.90
2019-05-19T03:46:31.458Z,12.03
2019-05-19T03:48:58.108Z,13.17
2019-05-19T03:51:30.789Z,13.57
2019-05-19T03:53:53.326Z,13.60
2019-05-19T03:56:20.331Z,13.10
2019-05-19T03:58:47.559Z,13.60
2019-05-19T04:01:14.129Z,13.10
2019-05-19T04:03:43.973Z,14.03
2019-05-19T04:06:11.143Z,13.83
2019-05-19T04:08:38.044Z,13.87
2019-05-19T04:11:04.879Z,13.40
2019-05-19T04:13:31.630Z,13.30
2019-05-19T04:15:58.595Z,12.10
2019-05-19T04:18:25.249Z,11.83
2019-05-19T04:20:51.878Z,11.57
2019-05-19T04:23:19.508Z,11.20
2019-05-19T04:25:46.309Z,11.93
2019-05-19T04:28:13.079Z,9.67
2019-05-19T04:30:40.056Z,10.50
2019-05-19T04:33:06.841Z,11.23
2019-05-19T04:35:35.414Z,11.50
2019-05-19T04:38:02.098Z,11.20
2019-05-19T04:40:29.084Z,12.50
2019-05-19T04:42:55.788Z,10.33
2019-05-19T04:45:22.828Z,11.23
2019-05-19T04:47:49.501Z,10.17
2019-05-19T04:50:16.474Z,9.73
2019-05-19T04:52:43.170Z,9.47
2019-05-19T04:55:09.778Z,8.77
2019-05-19T04:57:36.585Z,9.47
2019-05-19T05:00:03.741Z,9.40
2019-05-19T05:02:30.489Z,10.23
2019-05-19T05:04:57.216Z,9.50
2019-05-19T05:07:24.126Z,9.47
2019-05-19T05:09:50.694Z,9.37
2019-05-19T05:12:17.513Z,8.63
2019-05-19T05:14:44.153Z,9.37
2019-05-19T05:17:10.759Z,9.03
2019-05-19T05:19:43.763Z,8.73
2019-05-19T05:22:21.715Z,9.27
2019-05-19T05:24:38.959Z,8.50
2019-05-19T05:27:06.906Z,7.83
2019-05-19T05:29:35.616Z,8.60
2019-05-19T05:32:02.476Z,8.83
2019-05-19T05:34:29.131Z,8.85
2019-05-19T05:36:55.820Z,9.13
2019-05-19T05:39:22.490Z,8.10
2019-05-19T05:41:49.232Z,8.67
2019-05-19T05:44:16.475Z,8.10
2019-05-19T05:46:43.727Z,8.30
2019-05-19T05:49:10.769Z,8.40
2019-05-19T05:51:37.332Z,8.80
2019-05-19T05:54:04.948Z,8.67
2019-05-19T05:56:31.602Z,9.20
2019-05-19T05:58:58.185Z,8.80
2019-05-19T06:01:24.937Z,9.17
2019-05-19T06:03:51.612Z,9.15
2019-05-19T06:06:18.293Z,8.97
2019-05-19T06:08:45.278Z,8.23
2019-05-19T06:11:11.928Z,8.68
2019-05-19T06:13:38.582Z,9.27
2019-05-19T06:16:05.208Z,9.38
2019-05-19T06:18:31.791Z,9.07
2019-05-19T06:20:58.499Z,7.80
2019-05-19T06:23:25.141Z,8.27
2019-05-19T06:25:51.911Z,8.20
2019-05-19T06:28:18.675Z,8.43
2019-05-19T06:30:45.697Z,8.20
2019-05-19T06:33:12.517Z,8.30
2019-05-19T06:35:39.205Z,8.33
2019-05-19T06:38:05.952Z,8.88
2019-05-19T06:40:32.609Z,8.60
2019-05-19T06:42:59.353Z,8.13
2019-05-19T06:45:26.079Z,8.38
2019-05-19T06:47:52.809Z,7.85
2019-05-19T06:50:20.024Z,8.07
2019-05-19T06:52:46.743Z,9.08
2019-05-19T06:55:13.670Z,6.87
2019-05-19T06:57:40.505Z,8.40
2019-05-19T07:00:07.822Z,8.80
2019-05-19T07:02:34.456Z,8.08
2019-05-19T07:05:01.638Z,8.35
2019-05-19T07:07:28.272Z,8.85
2019-05-19T07:09:58.545Z,8.28
2019-05-19T07:12:23.858Z,8.58
2019-05-19T07:14:50.520Z,8.45
2019-05-19T07:17:17.309Z,8.60
2019-05-19T07:19:44.357Z,8.83
2019-05-19T07:22:11.085Z,8.90
2019-05-19T07:24:38.729Z,8.98
2019-05-19T07:27:05.419Z,9.23
2019-05-19T07:29:32.130Z,9.93
2019-05-19T07:31:58.868Z,10.82
2019-05-19T07:34:25.570Z,10.40
2019-05-19T07:36:52.202Z,9.23
2019-05-19T07:39:18.827Z,9.00
2019-05-19T07:41:45.501Z,9.03
2019-05-19T07:44:12.088Z,8.23
2019-05-19T07:46:38.766Z,8.65
2019-05-19T07:49:05.681Z,9.53
2019-05-19T07:51:32.521Z,8.70
2019-05-19T07:53:59.200Z,8.35
2019-05-19T07:56:25.835Z,9.85
2019-05-19T07:58:52.444Z,10.53
2019-05-19T08:01:19.095Z,10.40
2019-05-19T08:03:45.973Z,11.30
2019-05-19T08:06:12.720Z,10.45
2019-05-19T08:08:39.427Z,11.10
2019-05-19T08:11:06.137Z,9.88
2019-05-19T08:13:33.133Z,10.45
2019-05-19T08:15:59.846Z,8.73
2019-05-19T08:18:28.458Z,9.45
2019-05-19T08:20:55.218Z,9.53
2019-05-19T08:23:21.881Z,9.13
2019-05-19T08:25:48.859Z,9.28
2019-05-19T08:28:15.618Z,9.80
2019-05-19T08:30:42.316Z,9.60
2019-05-19T08:33:12.622Z,9.30
2019-05-19T08:35:39.298Z,9.13
2019-05-19T08:38:08.262Z,9.18
2019-05-19T08:40:35.219Z,9.40
2019-05-19T08:43:01.982Z,10.53
2019-05-19T08:45:31.365Z,10.75
2019-05-19T08:47:58.007Z,10.68
2019-05-19T08:50:24.912Z,10.55
2019-05-19T08:52:51.717Z,9.38
2019-05-19T08:55:18.855Z,10.25
2019-05-19T08:57:45.544Z,10.18
2019-05-19T09:00:12.353Z,9.65
2019-05-19T09:02:39.006Z,8.50
2019-05-19T09:05:05.756Z,9.70
2019-05-19T09:07:32.679Z,10.30
2019-05-19T09:10:00.491Z,10.32
2019-05-19T09:12:27.355Z,10.43
2019-05-19T09:14:54.107Z,8.95
2019-05-19T09:17:20.833Z,9.30
2019-05-19T09:19:47.583Z,9.85
2019-05-19T09:22:15.564Z,9.30
2019-05-19T09:24:43.305Z,10.05
2019-05-19T09:27:10.311Z,9.78
2019-05-19T09:29:37.308Z,10.32
2019-05-19T09:32:04.058Z,10.28
2019-05-19T09:34:30.768Z,10.90
2019-05-19T09:36:57.913Z,9.85
2019-05-19T09:39:25.410Z,10.53
2019-05-19T09:41:52.066Z,9.70
2019-05-19T09:44:19.788Z,10.10
2019-05-19T09:46:46.506Z,10.98
2019-05-19T09:49:31.623Z,10.88
2019-05-19T09:51:58.650Z,9.18
2019-05-19T09:54:26.045Z,9.88
2019-05-19T09:56:52.700Z,9.63
2019-05-19T09:59:20.091Z,9.20
2019-05-19T10:01:46.693Z,10.23
2019-05-19T10:04:13.431Z,10.32
2019-05-19T10:06:40.115Z,11.08
2019-05-19T10:09:27.456Z,9.80
2019-05-19T10:12:02.462Z,9.83
2019-05-19T10:14:29.593Z,9.35
2019-05-19T10:16:57.715Z,9.18
2019-05-19T10:19:25.236Z,8.63
2019-05-19T10:21:51.810Z,8.65
2019-05-19T10:24:18.924Z,9.83
2019-05-19T10:26:45.810Z,10.63
2019-05-19T10:29:12.576Z,10.93
2019-05-19T10:31:39.390Z,10.65
2019-05-19T10:34:06.145Z,9.65
2019-05-19T10:36:32.920Z,9.08
2019-05-19T10:38:59.546Z,9.10
2019-05-19T10:41:26.227Z,8.15
2019-05-19T10:44:00.858Z,8.98
2019-05-19T10:46:27.865Z,9.75
2019-05-19T10:48:54.457Z,9.83
2019-05-19T10:51:21.112Z,10.13
2019-05-19T10:53:48.956Z,10.00
2019-05-19T10:56:15.630Z,9.60
2019-05-19T10:58:42.306Z,8.58
2019-05-19T11:01:09.000Z,8.80
2019-05-19T11:03:35.675Z,9.08
2019-05-19T11:06:03.671Z,9.18
2019-05-19T11:08:30.988Z,9.03
2019-05-19T11:10:57.837Z,9.10
2019-05-19T11:13:24.529Z,9.93
2019-05-19T11:15:51.166Z,8.88
2019-05-19T11:18:17.761Z,8.63
2019-05-19T11:20:44.894Z,9.25
2019-05-19T11:23:12.019Z,7.12
2019-05-19T11:25:50.663Z,8.90
2019-05-19T11:28:08.577Z,7.70
2019-05-19T11:30:35.269Z,7.42
2019-05-19T11:33:02.000Z,8.45
2019-05-19T11:35:31.685Z,9.00
2019-05-19T11:37:58.686Z,8.73
2019-05-19T11:40:25.294Z,7.55
2019-05-19T11:42:51.886Z,7.75
2019-05-19T11:45:19.812Z,7.08
2019-05-19T11:47:46.405Z,7.35
2019-05-19T11:50:13.171Z,7.97
2019-05-19T11:52:39.954Z,8.40
2019-05-19T11:55:07.970Z,8.38
2019-05-19T11:57:35.763Z,7.60
2019-05-19T12:00:02.756Z,7.60
2019-05-19T12:02:29.361Z,8.10
2019-05-19T12:04:56.233Z,7.42
2019-05-19T12:07:23.863Z,8.23
2019-05-19T12:09:50.504Z,7.50
2019-05-19T12:12:17.197Z,7.75
2019-05-19T12:14:43.859Z,6.58
2019-05-19T12:17:10.679Z,7.55
2019-05-19T12:19:37.352Z,7.72
2019-05-19T12:22:03.938Z,8.35
2019-05-19T12:24:30.621Z,7.83
2019-05-19T12:26:57.265Z,7.50
2019-05-19T12:29:24.091Z,8.18
2019-05-19T12:31:50.885Z,7.62
2019-05-19T12:34:18.120Z,7.58
2019-05-19T12:36:44.727Z,7.45
2019-05-19T12:39:12.555Z,7.45
2019-05-19T12:41:39.252Z,8.13
2019-05-19T12:44:06.240Z,8.00
2019-05-19T12:46:32.977Z,6.78
2019-05-19T12:48:59.668Z,6.92
2019-05-19T12:51:27.048Z,8.38
2019-05-19T12:53:53.767Z,7.40
2019-05-19T12:56:20.796Z,7.60
2019-05-19T12:58:47.580Z,6.97
2019-05-19T13:01:14.207Z,7.75
2019-05-19T13:03:40.987Z,8.25
2019-05-19T13:06:07.535Z,8.53
2019-05-19T13:08:34.585Z,7.45
2019-05-19T13:11:02.379Z,8.35
2019-05-19T13:13:29.296Z,7.20
2019-05-19T13:15:55.974Z,6.95
2019-05-19T13:18:22.956Z,7.60
2019-05-19T13:20:49.768Z,7.55
2019-05-19T13:23:16.480Z,7.67
2019-05-19T13:25:43.112Z,6.92
2019-05-19T13:28:09.772Z,7.28
2019-05-19T13:30:37.035Z,6.90
2019-05-19T13:33:03.788Z,7.12
2019-05-19T13:35:30.709Z,6.67
2019-05-19T13:37:57.665Z,7.35
2019-05-19T13:40:24.291Z,6.75
2019-05-19T13:42:51.080Z,7.20
2019-05-19T13:45:19.166Z,6.87
2019-05-19T13:47:45.865Z,7.00
2019-05-19T13:50:12.925Z,7.05
2019-05-19T13:52:39.609Z,6.50
2019-05-19T13:55:07.263Z,6.80
2019-05-19T13:57:35.124Z,6.60
2019-05-19T14:00:02.052Z,6.53
2019-05-19T14:02:30.913Z,6.90
2019-05-19T14:04:57.617Z,6.90
2019-05-19T14:07:24.271Z,6.78
2019-05-19T14:09:50.952Z,6.37
2019-05-19T14:12:17.670Z,6.35
2019-05-19T14:14:44.334Z,6.78
2019-05-19T14:17:10.960Z,6.40
2019-05-19T14:19:37.615Z,5.75
2019-05-19T14:22:04.281Z,6.50
2019-05-19T14:24:30.904Z,5.90
2019-05-19T14:26:57.621Z,5.80
2019-05-19T14:29:25.406Z,6.17
2019-05-19T14:31:52.029Z,6.60
2019-05-19T14:34:18.714Z,6.40
2019-05-19T14:36:45.411Z,6.70
2019-05-19T14:39:12.055Z,5.80
2019-05-19T14:41:43.772Z,6.12
2019-05-19T14:44:10.628Z,6.25
2019-05-19T14:46:37.318Z,6.20
2019-05-19T14:49:04.024Z,6.85
2019-05-19T14:51:30.718Z,6.53
2019-05-19T14:54:00.215Z,6.75
2019-05-19T14:56:27.208Z,6.20
2019-05-19T14:58:53.796Z,6.05
2019-05-19T15:01:20.604Z,7.10
2019-05-19T15:03:47.212Z,6.78
2019-05-19T15:06:15.126Z,6.75
2019-05-19T15:08:41.916Z,6.62
2019-05-19T15:11:08.597Z,6.22
2019-05-19T15:13:35.222Z,6.30
2019-05-19T15:16:02.568Z,6.40
2019-05-19T15:18:29.234Z,7.28
2019-05-19T15:20:55.879Z,5.87
2019-05-19T15:23:23.219Z,7.30
2019-05-19T15:25:49.824Z,7.37
2019-05-19T15:28:16.552Z,7.10
2019-05-19T15:30:43.786Z,7.47
2019-05-19T15:33:10.467Z,7.03
2019-05-19T15:35:37.186Z,6.60
2019-05-19T15:38:03.852Z,7.28
2019-05-19T15:40:30.704Z,6.85
2019-05-19T15:42:57.739Z,7.10
2019-05-19T15:45:24.444Z,6.95
2019-05-19T15:47:51.087Z,6.97
2019-05-19T15:50:18.440Z,8.15
2019-05-19T15:52:45.101Z,7.20
2019-05-19T15:55:11.819Z,6.95
2019-05-19T15:57:39.035Z,6.95
2019-05-19T16:00:06.255Z,7.45
2019-05-19T16:02:34.210Z,7.55
2019-05-19T16:05:00.939Z,7.05
2019-05-19T16:07:27.955Z,7.42
2019-05-19T16:09:55.901Z,8.18
2019-05-19T16:12:22.580Z,7.30
2019-05-19T16:14:49.591Z,7.53
2019-05-19T16:17:16.288Z,7.95
2019-05-19T16:19:44.003Z,8.53
2019-05-19T16:22:10.826Z,7.92
2019-05-19T16:24:39.971Z,7.53
2019-05-19T16:27:06.817Z,7.15
2019-05-19T16:29:33.537Z,7.12
2019-05-19T16:32:01.827Z,7.62
2019-05-19T16:34:28.456Z,6.62
2019-05-19T16:36:55.581Z,7.40
2019-05-19T16:39:22.249Z,6.28
2019-05-19T16:41:48.923Z,6.65
2019-05-19T16:44:15.671Z,5.97
2019-05-19T16:46:42.248Z,6.30
2019-05-19T16:49:08.996Z,6.75
2019-05-19T16:51:35.749Z,6.17
2019-05-19T16:54:06.815Z,6.08
2019-05-19T16:56:35.605Z,7.30
2019-05-19T16:59:02.492Z,6.50
2019-05-19T17:01:29.168Z,6.33
2019-05-19T17:03:55.801Z,6.33
2019-05-19T17:06:22.435Z,6.70
2019-05-19T17:08:49.057Z,6.62
2019-05-19T17:11:18.461Z,6.53
2019-05-19T17:13:44.557Z,6.20
2019-05-19T17:16:11.222Z,6.35
2019-05-19T17:18:37.977Z,6.37
2019-05-19T17:21:04.681Z,7.15
2019-05-19T17:23:31.358Z,7.72
2019-05-19T17:25:58.038Z,7.30
2019-05-19T17:28:25.072Z,7.30
2019-05-19T17:30:51.747Z,6.75
2019-05-19T17:33:18.678Z,7.55
2019-05-19T17:35:45.552Z,7.50
2019-05-19T17:38:12.206Z,7.85
2019-05-19T17:40:39.199Z,7.87
2019-05-19T17:43:09.036Z,8.73
2019-05-19T17:45:36.751Z,9.30
2019-05-19T17:48:10.171Z,10.18
2019-05-19T17:50:32.900Z,9.85
2019-05-19T17:53:01.483Z,10.63
2019-05-19T17:55:28.449Z,11.08
2019-05-19T17:57:57.196Z,11.85
2019-05-19T18:00:33.877Z,11.05
2019-05-19T18:03:00.629Z,11.65
2019-05-19T18:05:27.945Z,11.75
2019-05-19T18:07:54.628Z,11.57
2019-05-19T18:10:21.474Z,11.08
2019-05-19T18:12:48.282Z,11.45
2019-05-19T18:15:16.272Z,11.45
2019-05-19T18:17:43.006Z,11.80
2019-05-19T18:20:22.943Z,11.40
2019-05-19T18:22:40.486Z,11.35
2019-05-19T18:25:07.218Z,11.57
2019-05-19T18:27:33.849Z,11.40
2019-05-19T18:30:00.553Z,13.20
2019-05-19T18:32:27.154Z,11.30
2019-05-19T18:34:56.780Z,11.85
2019-05-19T18:37:23.851Z,11.53
2019-05-19T18:39:50.463Z,13.00
2019-05-19T18:42:20.440Z,13.00
2019-05-19T18:44:46.214Z,12.55
2019-05-19T18:47:13.378Z,12.82
2019-05-19T18:49:39.989Z,13.10
2019-05-19T18:52:06.685Z,12.90
2019-05-19T18:54:33.741Z,13.68
2019-05-19T18:57:00.417Z,12.28
2019-05-19T18:59:27.054Z,12.50
2019-05-19T19:01:53.825Z,11.97
2019-05-19T19:04:21.601Z,11.15
2019-05-19T19:06:48.314Z,11.53
2019-05-19T19:09:15.310Z,11.50
2019-05-19T19:11:42.121Z,10.72
2019-05-19T19:14:08.861Z,11.22
2019-05-19T19:16:35.557Z,11.68
2019-05-19T19:19:02.233Z,11.83
2019-05-19T19:21:29.477Z,10.13
2019-05-19T19:23:57.105Z,11.70
2019-05-19T19:26:23.740Z,11.57
2019-05-19T19:28:50.382Z,11.43
2019-05-19T19:31:17.638Z,10.98
2019-05-19T19:33:46.562Z,11.22
2019-05-19T19:36:13.325Z,11.18
2019-05-19T19:38:40.049Z,11.10
2019-05-19T19:41:07.538Z,11.30
2019-05-19T19:43:34.228Z,11.33
2019-05-19T19:46:01.196Z,11.28
2019-05-19T19:48:27.768Z,11.88
2019-05-19T19:50:54.527Z,11.95
2019-05-19T19:53:21.210Z,12.75
2019-05-19T19:55:47.847Z,11.60
2019-05-19T19:58:14.479Z,12.43
2019-05-19T20:00:42.864Z,12.37
2019-05-19T20:03:09.883Z,11.65
2019-05-19T20:05:40.036Z,11.55
2019-05-19T20:08:08.488Z,11.55
2019-05-19T20:10:35.256Z,10.70
2019-05-19T20:13:02.113Z,10.98
2019-05-19T20:15:28.782Z,10.53
2019-05-19T20:17:55.565Z,11.30
2019-05-19T20:20:24.213Z,12.95
2019-05-19T20:22:51.392Z,11.90
2019-05-19T20:25:18.111Z,11.45
2019-05-19T20:27:44.977Z,13.62
2019-05-19T20:30:11.668Z,12.50
2019-05-19T20:32:38.513Z,13.25
2019-05-19T20:35:05.693Z,12.60
2019-05-19T20:37:32.285Z,12.35
2019-05-19T20:39:59.479Z,12.20
2019-05-19T20:42:26.384Z,12.85
2019-05-19T20:44:53.063Z,12.20
2019-05-19T20:47:19.972Z,12.63
2019-05-19T20:49:46.672Z,13.03
2019-05-19T20:52:13.443Z,13.45
2019-05-19T20:54:40.129Z,13.40
2019-05-19T20:57:06.891Z,13.38
2019-05-19T20:59:34.837Z,13.93
2019-05-19T21:02:01.446Z,14.27
2019-05-19T21:04:28.174Z,14.80
2019-05-19T21:06:54.911Z,15.30
2019-05-19T21:09:21.608Z,16.17
2019-05-19T21:11:48.890Z,15.20
2019-05-19T21:14:16.021Z,15.13
2019-05-19T21:16:42.703Z,15.38
2019-05-19T21:19:10.459Z,14.65
2019-05-19T21:21:37.087Z,14.47
2019-05-19T21:24:03.822Z,14.78
2019-05-19T21:26:30.658Z,15.50
2019-05-19T21:28:57.354Z,15.03
2019-05-19T21:31:26.301Z,15.97
2019-05-19T21:33:52.897Z,16.13
2019-05-19T21:36:19.687Z,16.60
2019-05-19T21:38:46.319Z,17.87
2019-05-19T21:41:13.479Z,17.40
2019-05-19T21:43:40.091Z,18.37
2019-05-19T21:46:12.821Z,18.23
2019-05-19T21:48:39.428Z,18.77
2019-05-19T21:51:06.358Z,16.87
2019-05-19T21:53:33.233Z,18.45
2019-05-19T21:56:00.471Z,18.52
2019-05-19T21:58:27.099Z,17.17
2019-05-19T22:00:53.875Z,16.42
2019-05-19T22:03:20.586Z,18.70
2019-05-19T22:05:53.300Z,18.43
2019-05-19T22:08:17.213Z,20.65
2019-05-19T22:10:44.929Z,18.48
2019-05-19T22:13:11.700Z,17.23
2019-05-19T22:15:39.170Z,18.70
2019-05-19T22:18:06.239Z,18.00
2019-05-19T22:20:32.881Z,18.05
2019-05-19T22:22:59.654Z,19.85
2019-05-19T22:25:26.367Z,18.00
2019-05-19T22:27:52.979Z,19.70
2019-05-19T22:30:20.014Z,18.85
2019-05-19T22:32:46.838Z,19.57
2019-05-19T22:35:14.219Z,20.43
2019-05-19T22:37:40.901Z,17.85
2019-05-19T22:40:08.311Z,20.60
2019-05-19T22:42:35.440Z,21.57
2019-05-19T22:45:02.692Z,21.60
2019-05-19T22:47:29.287Z,20.73
2019-05-19T22:49:56.137Z,20.93
2019-05-19T22:52:22.749Z,22.20
2019-05-19T22:54:49.671Z,20.37
2019-05-19T22:57:18.159Z,20.85
2019-05-19T22:59:44.880Z,21.52
2019-05-19T23:02:11.560Z,21.37
2019-05-19T23:04:38.187Z,22.75
2019-05-19T23:07:04.749Z,22.65
2019-05-19T23:09:31.630Z,22.87
2019-05-19T23:11:58.627Z,22.50
2019-05-19T23:14:25.227Z,23.67
2019-05-19T23:16:51.846Z,21.85
2019-05-19T23:19:18.500Z,23.67
2019-05-19T23:21:45.376Z,21.60
2019-05-19T23:24:12.034Z,21.75
2019-05-19T23:26:38.750Z,20.20
2019-05-19T23:29:05.481Z,21.33
2019-05-19T23:31:32.454Z,20.52
2019-05-19T23:33:59.104Z,19.95
2019-05-19T23:36:25.698Z,17.40
2019-05-19T23:38:52.316Z,19.15
2019-05-19T23:41:19.397Z,17.67
2019-05-19T23:43:46.075Z,18.80
2019-05-19T23:46:12.752Z,17.97
2019-05-19T23:48:40.508Z,19.87
2019-05-19T23:51:07.071Z,20.85
2019-05-19T23:53:34.003Z,18.97
2019-05-19T23:56:00.747Z,17.37
2019-05-19T23:58:27.617Z,18.02
